Time;durP1;ratioP1;P1;durP2;ratioP2;P2;SDS_P1;SDS_P2;PMS_P1;PMS_P2;Temp;Humidity;BMP_temperature;BMP_pressure;BME280_temperature;BME280_humidity;BME280_pressure;Samples;Min_cycle;Max_cycle;Signal;HPM_P1;HPM_P2
2023/03/17 00:00:23;;;;;;;0.55;0.55;;;;;;;5.08;63.13;96587.37;29395;216;63004;-55
2023/03/17 00:00:55;;;;;;;0.60;0.60;;;;;;;5.06;63.35;96584.97;29395;322;63009;-55
2023/03/17 00:01:26;;;;;;;0.60;0.60;;;;;;;5.01;63.98;96585.75;29395;211;63004;-54
2023/03/17 00:01:59;;;;;;;0.60;0.60;;;;;;;4.98;63.88;96588.16;29395;204;63009;-55
2023/03/17 00:02:30;;;;;;;0.60;0.60;;;;;;;4.96;63.92;96588.44;29394;197;64009;-55
2023/03/17 00:03:03;;;;;;;0.60;0.60;;;;;;;4.95;63.90;96594.06;29395;226;63008;-56
2023/03/17 00:03:40;;;;;;;0.60;0.60;;;;;;;4.95;63.88;96594.06;29394;203;64008;-57
2023/03/17 00:04:12;;;;;;;0.50;0.50;;;;;;;4.95;63.86;96588.69;29395;282;63009;-55
2023/03/17 00:04:44;;;;;;;0.50;0.50;;;;;;;4.96;63.67;96598.38;29394;251;64009;-55
2023/03/17 00:05:23;;;;;;;0.50;0.50;;;;;;;4.97;63.82;96590.03;29395;289;63009;-55
2023/03/17 00:05:57;;;;;;;0.60;0.60;;;;;;;4.98;63.56;96596.22;29395;294;63005;-56
2023/03/17 00:06:30;;;;;;;0.60;0.60;;;;;;;4.97;63.91;96594.59;29395;199;63014;-55
2023/03/17 00:07:02;;;;;;;0.60;0.60;;;;;;;4.96;63.54;96593.00;29395;234;63005;-55
2023/03/17 00:07:36;;;;;;;0.60;0.60;;;;;;;4.96;63.84;96593.00;29395;202;63009;-54
2023/03/17 00:08:19;;;;;;;0.60;0.60;;;;;;;4.93;63.99;96588.94;29395;277;63004;-55
2023/03/17 00:08:51;;;;;;;2.12;2.05;;;;;;;4.93;63.97;96593.53;29395;206;63009;-54
2023/03/17 00:09:22;;;;;;;0.60;0.60;;;;;;;4.90;63.74;96583.28;29395;197;63004;-56
2023/03/17 00:09:54;;;;;;;0.60;0.60;;;;;;;4.90;64.35;96588.66;29394;236;64013;-55
2023/03/17 00:10:31;;;;;;;0.60;0.60;;;;;;;4.85;64.30;96592.13;29395;262;63004;-55
2023/03/17 00:11:05;;;;;;;0.60;0.60;;;;;;;4.85;64.38;96586.75;29395;344;63008;-55
2023/03/17 00:11:36;;;;;;;0.50;0.50;;;;;;;4.84;64.28;96584.38;29395;214;63005;-55
2023/03/17 00:12:11;;;;;;;0.60;0.60;;;;;;;4.83;64.41;96582.75;29395;203;63009;-55
2023/03/17 00:12:44;;;;;;;0.60;0.60;;;;;;;4.81;64.86;96582.22;29394;232;64009;-60
2023/03/17 00:13:16;;;;;;;0.60;0.60;;;;;;;4.80;64.93;96584.09;29395;263;63009;-55
2023/03/17 00:13:48;;;;;;;0.60;0.60;;;;;;;4.80;64.50;96583.28;29395;232;63005;-55
2023/03/17 00:14:19;;;;;;;0.60;0.60;;;;;;;4.79;64.76;96581.66;29395;198;63014;-55
2023/03/17 00:14:50;;;;;;;0.60;0.60;;;;;;;4.80;64.57;96575.22;29395;309;63005;-55
2023/03/17 00:15:23;;;;;;;0.50;0.50;;;;;;;4.82;64.80;96575.75;29394;240;64013;-55
2023/03/17 00:16:11;;;;;;;0.60;0.60;;;;;;;4.85;64.46;96577.91;29395;202;63004;-55
2023/03/17 00:16:49;;;;;;;0.60;0.60;;;;;;;4.86;64.45;96576.81;29395;197;63009;-55
2023/03/17 00:17:20;;;;;;;0.60;0.60;;;;;;;4.90;64.62;96567.16;29395;381;63004;-55
2023/03/17 00:17:54;;;;;;;1.12;1.12;;;;;;;4.92;64.40;96570.41;29395;251;63009;-54
2023/03/17 00:18:29;;;;;;;0.60;0.60;;;;;;;4.91;64.25;96568.78;29395;206;63004;-55
2023/03/17 00:19:00;;;;;;;0.60;0.60;;;;;;;4.90;64.52;96567.97;29395;198;63009;-55
2023/03/17 00:19:34;;;;;;;0.60;0.60;;;;;;;4.90;64.31;96561.78;29395;301;63005;-55
2023/03/17 00:20:10;;;;;;;0.50;0.50;;;;;;;4.89;64.69;96562.84;29395;316;63009;-55
2023/03/17 00:20:42;;;;;;;0.60;0.60;;;;;;;4.91;64.60;96563.41;29394;271;64009;-55
2023/03/17 00:21:19;;;;;;;0.60;0.60;;;;;;;4.92;64.34;96559.62;29395;209;63009;-55
2023/03/17 00:21:51;;;;;;;0.60;0.60;;;;;;;4.93;64.31;96566.62;29395;285;63005;-55
2023/03/17 00:22:22;;;;;;;0.60;0.60;;;;;;;4.93;64.47;96555.87;29395;331;63009;-55
2023/03/17 00:22:56;;;;;;;0.50;0.50;;;;;;;4.91;64.25;96568.78;29395;310;63005;-54
2023/03/17 00:23:27;;;;;;;0.50;0.50;;;;;;;4.88;64.52;96569.31;29395;220;63009;-55
2023/03/17 00:24:01;;;;;;;1.17;1.17;;;;;;;4.86;64.61;96566.88;29395;202;63004;-54
2023/03/17 00:24:32;;;;;;;0.60;0.60;;;;;;;4.85;65.12;96562.56;29395;230;63009;-55
2023/03/17 00:25:19;;;;;;;0.60;0.60;;;;;;;4.84;64.82;96562.87;29395;230;63008;-55
2023/03/17 00:25:52;;;;;;;0.60;0.60;;;;;;;4.84;64.80;96562.87;29394;264;64013;-55
2023/03/17 00:26:25;;;;;;;0.60;0.60;;;;;;;4.83;65.00;96555.87;29395;206;63005;-55
2023/03/17 00:26:57;;;;;;;0.60;0.60;;;;;;;4.85;64.76;96559.09;29395;222;63009;-55
2023/03/17 00:27:28;;;;;;;0.50;0.50;;;;;;;4.82;65.17;96559.62;29395;243;63010;-55
2023/03/17 00:28:02;;;;;;;0.60;0.60;;;;;;;4.81;65.00;96558.00;29395;220;63009;-55
2023/03/17 00:28:33;;;;;;;0.62;0.62;;;;;;;4.85;64.97;96553.72;29395;349;63005;-56
2023/03/17 00:29:04;;;;;;;0.50;0.50;;;;;;;4.91;65.03;96558.03;29395;243;63009;-55
2023/03/17 00:29:36;;;;;;;0.60;0.60;;;;;;;4.90;64.61;96553.72;29395;233;63005;-57
2023/03/17 00:30:10;;;;;;;0.60;0.60;;;;;;;4.91;64.76;96555.34;29395;215;63009;-55
2023/03/17 00:30:41;;;;;;;0.60;0.60;;;;;;;4.87;64.96;96556.94;29395;218;63004;-55
2023/03/17 00:31:19;;;;;;;0.60;0.60;;;;;;;4.88;64.99;96553.97;29394;346;64005;-56
2023/03/17 00:31:51;;;;;;;0.60;0.60;;;;;;;4.87;64.62;96556.94;29395;229;63004;-54
2023/03/17 00:32:23;;;;;;;1.45;1.45;;;;;;;4.85;64.79;96548.34;29395;331;63009;-54
2023/03/17 00:32:57;;;;;;;0.60;0.60;;;;;;;4.86;65.08;96555.31;29395;199;63004;-55
2023/03/17 00:33:32;;;;;;;0.60;0.60;;;;;;;4.85;65.02;96553.72;29395;296;63008;-55
2023/03/17 00:34:03;;;;;;;0.60;0.60;;;;;;;4.83;64.92;96551.31;29395;219;63005;-55
2023/03/17 00:34:35;;;;;;;0.50;0.50;;;;;;;4.83;65.21;96558.56;29395;407;63009;-54
2023/03/17 00:35:27;;;;;;;1.05;1.05;;;;;;;4.83;65.17;96555.87;29395;209;63005;-55
2023/03/17 00:36:00;;;;;;;0.70;0.70;;;;;;;4.83;65.33;96555.87;29394;202;64013;-55
2023/03/17 00:36:33;;;;;;;0.60;0.60;;;;;;;4.80;65.19;96545.66;29395;209;63005;-55
2023/03/17 00:37:04;;;;;;;0.70;0.70;;;;;;;4.83;65.57;96555.87;29395;255;63009;-55
2023/03/17 00:37:36;;;;;;;0.60;0.60;;;;;;;4.83;65.42;96545.94;29395;239;63005;-55
2023/03/17 00:38:16;;;;;;;0.60;0.60;;;;;;;4.85;65.15;96548.34;29395;262;63009;-55
2023/03/17 00:38:48;;;;;;;0.50;0.50;;;;;;;4.86;65.28;96550.75;29395;240;63004;-55
2023/03/17 00:39:20;;;;;;;0.50;0.50;;;;;;;4.88;64.91;96555.84;29395;271;63009;-54
2023/03/17 00:39:51;;;;;;;0.50;0.50;;;;;;;4.87;65.08;96551.56;29395;224;63004;-62
2023/03/17 00:40:29;;;;;;;0.50;0.50;;;;;;;4.87;64.99;96546.19;29394;223;64013;-56
2023/03/17 00:41:00;;;;;;;0.60;0.60;;;;;;;4.86;64.84;96549.94;29395;207;63004;-55
2023/03/17 00:41:32;;;;;;;0.60;0.60;;;;;;;4.87;65.04;96547.00;29395;225;63009;-55
2023/03/17 00:42:04;;;;;;;0.60;0.60;;;;;;;4.89;64.92;96547.53;29395;265;63005;-55
2023/03/17 00:42:35;;;;;;;0.60;0.60;;;;;;;4.90;64.89;96540.28;29395;197;63009;-59
2023/03/17 00:43:07;;;;;;;0.60;0.60;;;;;;;4.90;64.95;96540.28;29395;219;63005;-56
2023/03/17 00:43:40;;;;;;;0.60;0.60;;;;;;;4.94;64.85;96546.75;29395;304;63009;-56
2023/03/17 00:44:13;;;;;;;0.50;0.50;;;;;;;4.93;64.72;96542.44;29395;232;63005;-54
2023/03/17 00:44:48;;;;;;;0.60;0.60;;;;;;;4.88;65.05;96542.41;29394;215;64013;-54
2023/03/17 00:45:20;;;;;;;0.60;0.60;;;;;;;4.83;65.17;96540.56;29394;319;64009;-55
2023/03/17 00:45:52;;;;;;;0.60;0.60;;;;;;;4.83;65.25;96545.94;29395;270;63009;-57
2023/03/17 00:46:37;;;;;;;0.60;0.60;;;;;;;4.84;65.37;96541.34;29394;222;64009;-55
2023/03/17 00:47:10;;;;;;;0.60;0.60;;;;;;;4.85;65.22;96548.34;29395;226;63009;-55
2023/03/17 00:47:44;;;;;;;0.60;0.60;;;;;;;4.85;65.25;96542.97;29395;213;63004;-54
2023/03/17 00:48:19;;;;;;;0.60;0.60;;;;;;;4.82;65.45;96538.94;29395;268;63008;-55
2023/03/17 00:48:53;;;;;;;0.50;0.50;;;;;;;4.81;65.20;96536.50;29395;319;63004;-55
2023/03/17 00:49:25;;;;;;;0.60;0.60;;;;;;;4.83;65.39;96537.06;29395;197;63024;-61
2023/03/17 00:49:57;;;;;;;0.60;0.60;;;;;;;4.84;65.46;96541.34;29394;395;64009;-55
2023/03/17 00:50:28;;;;;;;0.60;0.60;;;;;;;4.83;65.53;96534.38;29395;212;63009;-55
2023/03/17 00:51:00;;;;;;;0.60;0.60;;;;;;;4.82;65.27;96538.13;29395;202;63008;-55
2023/03/17 00:51:31;;;;;;;0.60;0.60;;;;;;;4.81;65.57;96534.63;29395;280;63009;-55
2023/03/17 00:52:04;;;;;;;0.52;0.52;;;;;;;4.79;65.23;96538.66;29395;246;63005;-55
2023/03/17 00:52:37;;;;;;;0.50;0.50;;;;;;;4.78;65.59;96539.72;29395;340;63009;-54
2023/03/17 00:53:14;;;;;;;0.60;0.60;;;;;;;4.76;65.63;96545.38;29395;197;63004;-56
2023/03/17 00:53:45;;;;;;;0.60;0.60;;;;;;;4.76;65.74;96539.19;29395;234;63009;-55
2023/03/17 00:54:19;;;;;;;0.50;0.50;;;;;;;4.75;66.00;96545.63;29395;206;63004;-55
2023/03/17 00:54:51;;;;;;;0.60;0.60;;;;;;;4.76;66.17;96544.56;29395;218;63008;-56
2023/03/17 00:55:25;;;;;;;0.50;0.50;;;;;;;4.76;65.92;96541.88;29394;273;64008;-55
2023/03/17 00:55:58;;;;;;;0.60;0.60;;;;;;;4.80;65.77;96534.91;29395;209;63009;-56
2023/03/17 00:56:30;;;;;;;0.60;0.60;;;;;;;4.84;65.29;96546.75;29395;303;63005;-55
2023/03/17 00:57:09;;;;;;;0.60;0.60;;;;;;;4.84;65.57;96535.97;29395;369;63009;-54
2023/03/17 00:57:42;;;;;;;0.60;0.60;;;;;;;4.81;65.67;96534.63;29395;197;63005;-54
2023/03/17 00:58:25;;;;;;;0.60;0.60;;;;;;;4.77;65.93;96535.41;29395;232;63023;-54
2023/03/17 00:58:57;;;;;;;0.50;0.50;;;;;;;4.75;65.65;96537.56;29395;210;63005;-55
2023/03/17 00:59:36;;;;;;;0.60;0.60;;;;;;;4.75;66.11;96537.56;29395;228;63009;-54
2023/03/17 01:00:26;;;;;;;0.60;0.60;;;;;;;4.72;66.53;96544.28;29394;232;64009;-56
2023/03/17 01:00:58;;;;;;;0.60;0.60;;;;;;;4.76;66.10;96536.50;29395;221;63009;-55
2023/03/17 01:01:30;;;;;;;0.60;0.60;;;;;;;4.77;65.77;96532.72;29394;234;64003;-55
2023/03/17 01:02:03;;;;;;;0.60;0.60;;;;;;;4.74;65.98;96536.75;29395;203;63013;-55
2023/03/17 01:02:34;;;;;;;0.60;0.60;;;;;;;4.74;66.19;96530.56;29395;208;63004;-55
2023/03/17 01:03:11;;;;;;;0.60;0.60;;;;;;;4.79;66.06;96538.66;29394;212;64013;-56
2023/03/17 01:03:42;;;;;;;0.57;0.57;;;;;;;4.78;66.01;96531.66;29395;277;63005;-54
2023/03/17 01:04:14;;;;;;;0.60;0.60;;;;;;;4.75;66.22;96537.56;29394;219;64014;-54
2023/03/17 01:04:45;;;;;;;0.60;0.60;;;;;;;4.74;65.88;96541.31;29395;214;63005;-55
2023/03/17 01:05:18;;;;;;;0.52;0.52;;;;;;;4.72;66.17;96539.69;29394;204;64013;-54
2023/03/17 01:05:51;;;;;;;0.60;0.60;;;;;;;4.72;66.32;96534.31;29395;207;63005;-54
2023/03/17 01:06:25;;;;;;;0.60;0.60;;;;;;;4.70;66.28;96530.28;29395;365;63009;-55
2023/03/17 01:06:58;;;;;;;0.60;0.60;;;;;;;4.70;66.67;96531.09;29395;217;63005;-55
2023/03/17 01:07:30;;;;;;;0.60;0.60;;;;;;;4.69;66.46;96532.16;29395;227;63009;-55
2023/03/17 01:08:04;;;;;;;0.60;0.60;;;;;;;4.69;66.41;96534.84;29395;214;63004;-55
2023/03/17 01:08:39;;;;;;;0.60;0.60;;;;;;;4.76;66.20;96528.44;29395;210;63009;-55
2023/03/17 01:09:17;;;;;;;0.60;0.60;;;;;;;4.75;66.31;96533.00;29395;229;63006;-55
2023/03/17 01:09:49;;;;;;;0.60;0.60;;;;;;;4.73;66.07;96529.75;29395;209;63018;-55
2023/03/17 01:10:27;;;;;;;0.60;0.60;;;;;;;4.71;66.35;96521.97;29394;248;64008;-57
2023/03/17 01:10:58;;;;;;;0.60;0.60;;;;;;;4.70;66.21;96517.66;29394;255;64014;-55
2023/03/17 01:11:30;;;;;;;0.50;0.50;;;;;;;4.74;66.56;96519.81;29395;216;63005;-55
2023/03/17 01:12:01;;;;;;;0.60;0.60;;;;;;;4.73;66.24;96524.38;29395;220;63009;-56
2023/03/17 01:12:32;;;;;;;0.60;0.60;;;;;;;4.73;66.32;96524.38;29395;311;63005;-55
2023/03/17 01:13:05;;;;;;;0.60;0.60;;;;;;;4.71;66.30;96521.97;29395;224;63009;-55
2023/03/17 01:13:36;;;;;;;0.60;0.60;;;;;;;4.71;66.39;96521.16;29395;264;63005;-55
2023/03/17 01:14:10;;;;;;;0.60;0.60;;;;;;;4.69;66.56;96518.72;29394;235;64013;-54
2023/03/17 01:14:42;;;;;;;0.60;0.60;;;;;;;4.67;66.73;96514.69;29395;216;63005;-55
2023/03/17 01:15:15;;;;;;;0.60;0.60;;;;;;;4.66;66.45;96510.37;29395;214;63023;-54
2023/03/17 01:15:48;;;;;;;0.60;0.60;;;;;;;4.63;67.03;96509.03;29395;205;63004;-54
2023/03/17 01:16:22;;;;;;;0.55;0.55;;;;;;;4.60;67.25;96511.44;29395;225;63021;-59
2023/03/17 01:16:54;;;;;;;0.60;0.60;;;;;;;4.58;67.70;96522.44;29395;271;63004;-55
2023/03/17 01:17:25;;;;;;;0.60;0.60;;;;;;;4.57;67.03;96515.47;29395;212;63009;-54
2023/03/17 01:17:58;;;;;;;0.50;0.50;;;;;;;4.56;67.57;96510.34;29394;203;64008;-55
2023/03/17 01:18:30;;;;;;;0.60;0.60;;;;;;;4.56;67.54;96508.47;29395;231;63023;-54
2023/03/17 01:19:01;;;;;;;0.60;0.60;;;;;;;4.55;67.71;96517.59;29395;227;63005;-54
2023/03/17 01:19:33;;;;;;;0.60;0.60;;;;;;;4.55;67.47;96509.53;29395;222;63009;-55
2023/03/17 01:20:07;;;;;;;0.50;0.50;;;;;;;4.56;67.37;96511.16;29395;222;63005;-55
2023/03/17 01:20:38;;;;;;;0.60;0.60;;;;;;;4.57;67.21;96515.47;29395;228;63009;-54
2023/03/17 01:21:10;;;;;;;0.60;0.60;;;;;;;4.57;67.73;96511.97;29395;208;63005;-55
2023/03/17 01:21:41;;;;;;;0.55;0.55;;;;;;;4.56;67.30;96513.84;29395;230;63009;-55
2023/03/17 01:22:16;;;;;;;0.55;0.55;;;;;;;4.57;67.26;96514.66;29394;259;64009;-55
2023/03/17 01:22:48;;;;;;;0.60;0.60;;;;;;;4.55;67.66;96528.34;29395;305;63009;-54
2023/03/17 01:23:20;;;;;;;0.60;0.60;;;;;;;4.53;68.15;96524.31;29394;198;64009;-54
2023/03/17 01:23:52;;;;;;;0.50;0.50;;;;;;;4.49;68.08;96528.59;29395;212;63009;-54
2023/03/17 01:24:25;;;;;;;0.50;0.50;;;;;;;4.47;67.94;96526.19;29395;203;63004;-55
2023/03/17 01:24:56;;;;;;;0.50;0.50;;;;;;;4.45;68.19;96525.63;29395;197;63009;-54
2023/03/17 01:25:28;;;;;;;0.52;0.52;;;;;;;4.45;68.26;96533.69;29395;221;63009;-55
2023/03/17 01:25:59;;;;;;;0.60;0.60;;;;;;;4.45;68.22;96527.53;29394;211;64014;-54
2023/03/17 01:26:31;;;;;;;0.60;0.60;;;;;;;4.42;68.17;96518.09;29395;225;63005;-55
2023/03/17 01:27:03;;;;;;;0.60;0.60;;;;;;;4.42;68.22;96523.47;29394;219;64014;-54
2023/03/17 01:27:36;;;;;;;0.75;0.75;;;;;;;4.44;68.25;96523.22;29395;224;63005;-55
2023/03/17 01:28:09;;;;;;;0.57;0.57;;;;;;;4.43;68.69;96529.66;29395;238;63009;-54
2023/03/17 01:28:40;;;;;;;0.50;0.50;;;;;;;4.41;68.35;96519.16;29395;221;63005;-55
2023/03/17 01:29:12;;;;;;;0.60;0.60;;;;;;;4.42;68.13;96523.47;29395;214;63009;-56
2023/03/17 01:29:44;;;;;;;0.57;0.57;;;;;;;4.46;68.16;96523.75;29395;262;63005;-54
2023/03/17 01:30:44;;;;;;;0.60;0.60;;;;;;;4.45;67.95;96517.59;29395;211;63009;-54
2023/03/17 01:31:16;;;;;;;0.60;0.60;;;;;;;4.46;68.12;96524.56;29394;226;64009;-55
2023/03/17 01:31:48;;;;;;;0.60;0.60;;;;;;;4.46;68.02;96518.37;29395;237;63009;-55
2023/03/17 01:32:20;;;;;;;0.60;0.60;;;;;;;4.45;68.05;96517.59;29394;197;64009;-54
2023/03/17 01:32:52;;;;;;;0.60;0.60;;;;;;;4.44;68.50;96518.66;29395;220;63008;-55
2023/03/17 01:33:24;;;;;;;0.60;0.60;;;;;;;4.44;68.09;96515.97;29394;267;64009;-56
2023/03/17 01:33:55;;;;;;;0.60;0.60;;;;;;;4.46;67.90;96513.81;29394;320;64014;-55
2023/03/17 01:34:27;;;;;;;0.50;0.50;;;;;;;4.47;67.97;96510.06;29395;280;63008;-54
2023/03/17 01:34:58;;;;;;;0.60;0.60;;;;;;;4.42;68.13;96507.34;29395;234;63009;-55
2023/03/17 01:35:30;;;;;;;0.60;0.60;;;;;;;4.47;67.88;96514.62;29395;202;63005;-56
2023/03/17 01:36:01;;;;;;;0.60;0.60;;;;;;;4.47;67.94;96520.81;29395;251;63009;-54
2023/03/17 01:36:33;;;;;;;0.60;0.60;;;;;;;4.49;68.12;96507.12;29394;203;64009;-54
2023/03/17 01:37:04;;;;;;;0.60;0.60;;;;;;;4.50;67.74;96514.09;29395;228;63009;-55
2023/03/17 01:37:36;;;;;;;0.60;0.60;;;;;;;4.49;67.87;96507.94;29395;204;63011;-55
2023/03/17 01:38:08;;;;;;;0.50;0.50;;;;;;;4.48;68.04;96508.19;29395;216;63009;-55
2023/03/17 01:38:40;;;;;;;0.52;0.52;;;;;;;4.45;68.23;96509.53;29395;194;63004;-54
2023/03/17 01:39:15;;;;;;;0.60;0.60;;;;;;;4.43;68.23;96508.16;29395;197;63023;-55
2023/03/17 01:39:46;;;;;;;0.60;0.60;;;;;;;4.46;68.21;96503.06;29395;216;63004;-55
2023/03/17 01:40:24;;;;;;;0.60;0.60;;;;;;;4.47;67.97;96504.69;29395;202;63024;-55
2023/03/17 01:40:55;;;;;;;0.60;0.60;;;;;;;4.47;67.98;96512.75;29395;286;63004;-55
2023/03/17 01:41:27;;;;;;;0.60;0.60;;;;;;;4.47;68.32;96512.75;29394;304;64014;-54
2023/03/17 01:42:00;;;;;;;0.50;0.50;;;;;;;4.45;68.20;96504.16;29394;220;64009;-59
2023/03/17 01:42:32;;;;;;;0.60;0.60;;;;;;;4.45;68.30;96511.41;29395;213;63009;-54
2023/03/17 01:43:26;;;;;;;0.60;0.60;;;;;;;4.41;68.14;96511.13;29395;240;63015;-55
2023/03/17 01:43:58;;;;;;;0.60;0.60;;;;;;;4.41;68.44;96507.63;29395;212;63009;-54
2023/03/17 01:44:30;;;;;;;0.60;0.60;;;;;;;4.38;68.57;96506.25;29395;240;63005;-55
2023/03/17 01:45:26;;;;;;;0.60;0.60;;;;;;;4.37;68.87;96507.34;29395;218;63009;-55
2023/03/17 01:46:34;;;;;;;0.60;0.60;;;;;;;4.36;68.57;96513.78;29394;221;64009;-55
2023/03/17 01:47:06;;;;;;;0.60;0.60;;;;;;;4.35;68.83;96512.16;29395;211;63009;-55
2023/03/17 01:47:37;;;;;;;0.60;0.60;;;;;;;4.33;68.85;96508.94;29395;285;63004;-54
2023/03/17 01:48:08;;;;;;;0.60;0.60;;;;;;;4.33;68.79;96508.94;29395;220;63008;-54
2023/03/17 01:49:04;;;;;;;0.60;0.60;;;;;;;4.32;68.87;96507.31;29395;328;63005;-55
2023/03/17 01:49:38;;;;;;;0.60;0.60;;;;;;;4.30;68.92;96504.88;29395;204;63017;-55
2023/03/17 01:50:11;;;;;;;0.60;0.60;;;;;;;4.32;69.02;96507.31;29395;200;63005;-55
2023/03/17 01:50:47;;;;;;;0.60;0.60;;;;;;;4.33;68.89;96503.56;29395;224;63015;-54
2023/03/17 01:51:33;;;;;;;0.60;0.60;;;;;;;4.35;68.83;96501.41;29394;243;64009;-55
2023/03/17 01:52:14;;;;;;;0.60;0.60;;;;;;;4.35;68.57;96496.03;29395;276;63009;-55
2023/03/17 01:52:46;;;;;;;0.60;0.60;;;;;;;4.36;68.34;96503.03;29395;249;63008;-56
2023/03/17 01:53:20;;;;;;;0.60;0.60;;;;;;;4.37;68.51;96496.59;29395;222;63015;-54
2023/03/17 01:53:53;;;;;;;0.60;0.60;;;;;;;4.38;68.36;96495.53;29395;292;63004;-55
2023/03/17 01:54:49;;;;;;;0.50;0.50;;;;;;;4.42;68.05;96496.63;29395;202;63008;-54
2023/03/17 01:55:20;;;;;;;0.60;0.60;;;;;;;4.45;67.75;96493.41;29395;235;63004;-55
2023/03/17 01:55:52;;;;;;;0.60;0.60;;;;;;;4.46;68.00;96492.34;29395;239;63008;-56
2023/03/17 01:56:24;;;;;;;0.60;0.60;;;;;;;4.47;68.03;96488.56;29394;214;64009;-54
2023/03/17 01:57:14;;;;;;;0.50;0.50;;;;;;;4.49;67.93;96478.38;29394;213;64013;-54
2023/03/17 01:57:52;;;;;;;0.60;0.60;;;;;;;4.50;67.67;96485.38;29395;237;63005;-55
2023/03/17 01:58:25;;;;;;;0.60;0.60;;;;;;;4.52;67.55;96487.75;29395;239;63009;-54
2023/03/17 01:59:00;;;;;;;0.60;0.60;;;;;;;4.50;67.51;96488.06;29395;209;63005;-54
2023/03/17 01:59:38;;;;;;;0.52;0.52;;;;;;;4.49;67.93;96482.94;29395;214;63009;-55
2023/03/17 02:00:16;;;;;;;0.60;0.60;;;;;;;4.47;67.66;96483.19;29395;197;63004;-55
2023/03/17 02:00:49;;;;;;;0.60;0.60;;;;;;;4.47;67.78;96471.66;29395;197;63009;-55
2023/03/17 02:01:29;;;;;;;0.60;0.60;;;;;;;4.45;67.72;96479.97;29395;211;63016;-59
2023/03/17 02:02:05;;;;;;;0.60;0.60;;;;;;;4.45;67.80;96485.34;29416;236;64013;-54
2023/03/17 02:02:40;;;;;;;0.60;0.60;;;;;;;4.44;68.15;96481.03;29395;224;63004;-55
2023/03/17 02:03:11;;;;;;;0.60;0.60;;;;;;;4.44;68.24;96489.09;29394;221;64014;-55
2023/03/17 02:03:44;;;;;;;0.60;0.60;;;;;;;4.41;68.63;96486.94;29395;217;63008;-56
2023/03/17 02:04:17;;;;;;;0.60;0.60;;;;;;;4.40;68.45;96482.63;29395;209;63009;-55
2023/03/17 02:04:51;;;;;;;0.60;0.60;;;;;;;4.44;68.08;96486.41;29395;232;63005;-55
2023/03/17 02:05:28;;;;;;;0.60;0.60;;;;;;;4.45;67.79;96479.16;29395;214;63009;-56
2023/03/17 02:06:01;;;;;;;0.60;0.60;;;;;;;4.45;67.77;96484.53;29395;214;63005;-54
2023/03/17 02:06:34;;;;;;;0.60;0.60;;;;;;;4.44;67.82;96486.41;29395;221;63009;-55
2023/03/17 02:07:06;;;;;;;0.60;0.60;;;;;;;4.43;68.32;96490.16;29394;202;64009;-54
2023/03/17 02:07:40;;;;;;;0.60;0.60;;;;;;;4.38;68.57;96490.97;29394;229;64013;-55
2023/03/17 02:08:15;;;;;;;0.50;0.50;;;;;;;4.37;68.69;96488.53;29395;339;63004;-54
2023/03/17 02:08:46;;;;;;;0.60;0.60;;;;;;;4.34;69.13;96494.44;29395;263;63009;-54
2023/03/17 02:09:18;;;;;;;0.60;0.60;;;;;;;4.32;68.90;96491.19;29395;204;63004;-54
2023/03/17 02:09:51;;;;;;;0.60;0.60;;;;;;;4.31;69.15;96495.75;29395;231;63008;-55
2023/03/17 02:10:25;;;;;;;0.60;0.60;;;;;;;4.31;69.02;96492.25;29395;253;63005;-55
2023/03/17 02:10:59;;;;;;;0.57;0.57;;;;;;;4.30;69.01;96491.44;29395;236;63009;-54
2023/03/17 02:11:32;;;;;;;0.60;0.60;;;;;;;4.30;69.04;96487.97;29394;206;64009;-56
2023/03/17 02:12:06;;;;;;;0.60;0.60;;;;;;;4.32;69.27;96488.50;29395;220;63009;-54
2023/03/17 02:12:41;;;;;;;0.60;0.60;;;;;;;4.32;69.11;96489.31;29395;222;63005;-55
2023/03/17 02:13:13;;;;;;;0.60;0.60;;;;;;;4.34;69.00;96489.06;29394;211;64003;-55
2023/03/17 02:13:46;;;;;;;0.60;0.60;;;;;;;4.35;68.60;96490.66;29395;209;63005;-54
2023/03/17 02:14:19;;;;;;;0.60;0.60;;;;;;;4.34;69.41;96494.44;29395;196;63009;-54
2023/03/17 02:14:51;;;;;;;0.60;0.60;;;;;;;4.31;69.35;96493.06;29395;232;63004;-55
2023/03/17 02:15:23;;;;;;;0.60;0.60;;;;;;;4.30;69.25;96498.69;29395;207;63009;-54
2023/03/17 02:15:55;;;;;;;0.60;0.60;;;;;;;4.29;69.63;96497.09;29395;251;63004;-55
2023/03/17 02:16:31;;;;;;;0.60;0.60;;;;;;;4.29;69.89;96497.09;29395;221;63016;-55
2023/03/17 02:17:02;;;;;;;0.60;0.60;;;;;;;4.29;69.52;96489.03;29395;241;63004;-54
2023/03/17 02:17:34;;;;;;;0.50;0.50;;;;;;;4.29;69.25;96497.09;29395;266;63008;-55
2023/03/17 02:18:06;;;;;;;0.50;0.50;;;;;;;4.29;69.55;96497.09;29394;229;64009;-54
2023/03/17 02:18:39;;;;;;;0.60;0.60;;;;;;;4.26;69.70;96489.56;29394;225;64014;-55
2023/03/17 02:19:10;;;;;;;0.55;0.55;;;;;;;4.25;69.41;96496.78;29395;226;63005;-55
2023/03/17 02:19:41;;;;;;;0.60;0.60;;;;;;;4.26;69.57;96492.22;29395;214;63009;-55
2023/03/17 02:20:55;;;;;;;0.50;0.50;;;;;;;4.28;69.06;96490.91;29396;213;63005;-55
2023/03/17 02:21:44;;;;;;;0.60;0.60;;;;;;;4.28;69.45;96490.09;29395;209;63009;-54
2023/03/17 02:22:17;;;;;;;0.60;0.60;;;;;;;4.26;69.37;96486.87;29394;224;64009;-55
2023/03/17 02:22:53;;;;;;;0.50;0.50;;;;;;;4.25;69.49;96490.62;29395;232;63015;-55
2023/03/17 02:23:25;;;;;;;1.92;1.83;;;;;;;4.28;68.96;96484.72;29394;221;64009;-55
2023/03/17 02:23:59;;;;;;;0.60;0.60;;;;;;;4.32;68.93;96475.06;29395;208;63016;-55
2023/03/17 02:24:42;;;;;;;0.60;0.60;;;;;;;4.33;68.56;96482.88;29395;231;63004;-55
2023/03/17 02:25:15;;;;;;;0.60;0.60;;;;;;;4.32;68.54;96475.06;29395;208;63008;-55
2023/03/17 02:25:49;;;;;;;0.50;0.50;;;;;;;4.31;68.88;96478.84;29395;199;63005;-54
2023/03/17 02:26:23;;;;;;;0.60;0.60;;;;;;;4.30;68.93;96472.66;29395;210;63009;-55
2023/03/17 02:26:59;;;;;;;0.60;0.60;;;;;;;4.31;68.72;96479.63;29395;214;63005;-55
2023/03/17 02:27:38;;;;;;;0.60;0.60;;;;;;;4.30;69.04;96480.72;29395;225;63024;-55
2023/03/17 02:28:15;;;;;;;0.60;0.60;;;;;;;4.29;68.77;96480.97;29395;237;63005;-54
2023/03/17 02:28:47;;;;;;;0.60;0.60;;;;;;;4.27;68.96;96488.47;29394;231;64013;-55
2023/03/17 02:29:21;;;;;;;0.60;0.60;;;;;;;4.25;69.43;96490.62;29373;228;63005;-54
2023/03/17 02:29:52;;;;;;;0.60;0.60;;;;;;;4.22;69.43;96489.25;29395;202;63016;-55
2023/03/17 02:30:25;;;;;;;0.50;0.50;;;;;;;4.22;69.22;96491.94;29395;233;63004;-54
2023/03/17 02:30:56;;;;;;;0.60;0.60;;;;;;;4.20;69.71;96490.59;29394;286;64013;-59
2023/03/17 02:31:29;;;;;;;0.60;0.60;;;;;;;4.20;69.88;96495.97;29395;214;63004;-54
2023/03/17 02:32:01;;;;;;;0.60;0.60;;;;;;;4.19;70.38;96499.72;29395;239;63026;-55
2023/03/17 02:32:37;;;;;;;0.50;0.50;;;;;;;4.15;70.21;96494.09;29395;213;63004;-55
2023/03/17 02:33:10;;;;;;;0.60;0.60;;;;;;;4.13;70.51;96495.41;29394;209;64014;-55
2023/03/17 02:33:42;;;;;;;0.60;0.60;;;;;;;4.11;70.29;96490.31;29394;231;64009;-55
2023/03/17 02:34:17;;;;;;;0.60;0.60;;;;;;;4.10;70.56;96498.62;29395;238;63009;-55
2023/03/17 02:34:48;;;;;;;0.60;0.60;;;;;;;4.10;70.62;96498.62;29395;226;63005;-56
2023/03/17 02:35:20;;;;;;;0.50;0.50;;;;;;;4.10;70.19;96498.62;29395;286;63009;-54
2023/03/17 02:35:52;;;;;;;0.50;0.50;;;;;;;4.10;70.23;96494.06;29395;269;63005;-55
2023/03/17 02:36:23;;;;;;;0.60;0.60;;;;;;;4.10;69.83;96495.94;29395;228;63009;-54
2023/03/17 02:36:55;;;;;;;0.98;0.98;;;;;;;4.11;69.86;96494.87;29395;205;63005;-55
2023/03/17 02:37:27;;;;;;;0.60;0.60;;;;;;;4.11;69.54;96492.19;29395;202;63019;-55
2023/03/17 02:37:59;;;;;;;0.60;0.60;;;;;;;4.11;69.81;96489.50;29395;238;63009;-54
2023/03/17 02:38:31;;;;;;;0.60;0.60;;;;;;;4.18;69.44;96490.03;29394;227;64013;-55
2023/03/17 02:39:03;;;;;;;0.52;0.52;;;;;;;4.21;69.12;96486.84;29395;342;63004;-55
2023/03/17 02:39:35;;;;;;;0.60;0.60;;;;;;;4.22;68.87;96489.25;29395;237;63009;-55
2023/03/17 02:40:10;;;;;;;0.60;0.60;;;;;;;4.22;68.80;96485.78;29395;232;63004;-55
2023/03/17 02:40:41;;;;;;;0.60;0.60;;;;;;;4.23;68.93;96487.37;29395;226;63024;-54
2023/03/17 02:41:12;;;;;;;0.50;0.50;;;;;;;4.22;68.86;96481.22;29394;197;64009;-54
2023/03/17 02:41:44;;;;;;;0.60;0.60;;;;;;;4.22;69.00;96488.47;29395;305;63024;-54
2023/03/17 02:42:15;;;;;;;0.60;0.60;;;;;;;4.20;68.92;96477.97;29395;225;63005;-54
2023/03/17 02:42:47;;;;;;;0.70;0.70;;;;;;;4.21;69.19;96484.16;29395;218;63009;-55
2023/03/17 02:43:18;;;;;;;0.60;0.60;;;;;;;4.22;68.97;96475.03;29395;239;63005;-54
2023/03/17 02:43:50;;;;;;;0.60;0.60;;;;;;;4.23;68.75;96476.66;29395;197;63023;-55
2023/03/17 02:44:22;;;;;;;0.60;0.60;;;;;;;4.26;68.74;96470.75;29395;294;63005;-54
2023/03/17 02:44:53;;;;;;;0.60;0.60;;;;;;;4.29;68.52;96480.97;29394;252;64013;-55